To NAV CANADA Home Page Login to a new session Search on AWWS site Disclaimer Vers la page française équivalente Tips FAQ What's new on the site To the Forecasts and Observations / NOTAM section To "File a Flight Plan" website Publications and other links Update of the User's profile FIC Telephone Numbers My Weather Data Folder Route Weather Data Regional Weather Data Local Weather Data To the Forecasts and Observations / NOTAM section
Request Generated 02/23/2020 at 10:48:08 UTC . Weather information available at that time is displayed.


Go to a specific product

Save this request - Inactive

METAR/TAF

CALGARY/YYC CALGARY INTL/AB    

METAR CYYC 231000Z 17002KT 15SM SCT110 BKN220 M07/M09 A2993 RMK AC3CI2 FROIN SLP192=
METAR CYYC 230900Z 23002KT 15SM FEW220 M06/M09 A2994 RMK CI1 CI TR FROIN SLP192=
METAR CYYC 230800Z 20005KT 15SM FEW210 M07/M09 A2994 RMK CI1 CI TR SLP195=

TAF CYYC 230838Z 2309/2406 VRB03KT P6SM SKC
BECMG 2316/2318 16010KT SCT080 BKN220
FM232000 12008KT P6SM BKN080 OVC160
FM232300 10010KT 4SM -SN FEW008 BKN020 OVC050 PROB40 2323/2401
2SM -SN OVC008
FM240100 36008KT 5SM -SN BR OVC006
FM240400 35012KT P6SM BKN012 OVC080
RMK NXT FCST BY 231200Z=

CALGARY/SPRINGBANK/AB    (show WxCam)

METAR CYBW 231000Z AUTO VRB02KT 9SM SCT140 SCT160 M10/M16 A2992 RMK SLP197=
METAR CYBW 230900Z AUTO 00000KT 9SM BKN140 M11/M16 A2992 RMK SLP197=
METAR CYBW 230800Z AUTO 27003KT 9SM OVC140 M09/M17 A2992 RMK SLP196=

*** REMARK        : Forecast period has ended; this was the last TAF issued
*** REMARQUE : La période de prévision est échue; ceci était le dernier TAF qui a été émis
TAF AMD CYBW 230356Z 2303/2305 18005KT P6SM SKC TEMPO 2303/2305
21/2SM BR PROB30 2303/2305 1SM BR
RMK FCST BASED ON AUTO OBS. NXT FCST WILL BE ISSUED AT 231245Z=


GRAPHICAL FA CLOUDS & WEATHER FORECASTS
To the Product Selector
Graphical FA gfacn32      

GRAPHICAL FA ICING, TURBULENCE & FREEZING LEVEL FORECASTS
To the Product Selector
Graphical FA gfacn32      

Your time UTC time
Weather data provided by Environment Canada and NAV CANADA